createdAt,value
2022-10-09T00:00:48.199Z,100.00
2022-10-09T00:03:17.055Z,100.00
2022-10-09T00:05:44.680Z,100.00
2022-10-09T00:08:11.026Z,100.00
2022-10-09T00:10:41.973Z,100.00
2022-10-09T00:13:08.363Z,100.00
2022-10-09T00:15:41.695Z,100.00
2022-10-09T00:18:09.707Z,100.00
2022-10-09T00:20:38.045Z,100.00
2022-10-09T00:23:05.065Z,100.00
2022-10-09T00:25:31.996Z,100.00
2022-10-09T00:27:59.067Z,100.00
2022-10-09T00:30:26.051Z,100.00
2022-10-09T00:32:52.725Z,100.00
2022-10-09T00:35:19.356Z,100.00
2022-10-09T00:37:46.180Z,100.00
2022-10-09T00:40:12.627Z,100.00
2022-10-09T00:42:39.025Z,100.00
2022-10-09T00:45:05.859Z,100.00
2022-10-09T00:47:37.942Z,100.00
2022-10-09T00:50:24.068Z,100.00
2022-10-09T00:52:54.826Z,100.00
2022-10-09T00:55:23.557Z,100.00
2022-10-09T00:57:50.896Z,100.00
2022-10-09T01:00:17.555Z,100.00
2022-10-09T01:02:44.193Z,100.00
2022-10-09T01:05:11.705Z,100.00
2022-10-09T01:07:57.056Z,100.00
2022-10-09T01:10:34.127Z,100.00
2022-10-09T01:13:23.602Z,100.00
2022-10-09T01:16:01.515Z,100.00
2022-10-09T01:18:48.799Z,100.00
2022-10-09T01:21:25.427Z,100.00
2022-10-09T01:24:16.484Z,100.00
2022-10-09T01:27:09.212Z,100.00
2022-10-09T01:29:41.030Z,100.00
2022-10-09T01:32:10.571Z,100.00
2022-10-09T01:34:39.089Z,100.00
2022-10-09T01:37:06.976Z,100.00
2022-10-09T01:39:35.465Z,100.00
2022-10-09T01:42:02.377Z,100.00
2022-10-09T01:44:31.929Z,100.00
2022-10-09T01:46:58.611Z,100.00
2022-10-09T01:49:54.120Z,100.00
2022-10-09T01:52:32.280Z,100.00
2022-10-09T01:55:08.469Z,100.00
2022-10-09T01:58:02.312Z,100.00
2022-10-09T02:00:33.504Z,100.00
2022-10-09T02:03:02.386Z,100.00
2022-10-09T02:05:30.745Z,100.00
2022-10-09T02:07:58.361Z,100.00
2022-10-09T02:10:25.815Z,100.00
2022-10-09T02:13:00.607Z,100.00
2022-10-09T02:15:34.725Z,100.00
2022-10-09T02:18:08.877Z,100.00
2022-10-09T02:20:39.762Z,100.00
2022-10-09T02:23:09.126Z,100.00
2022-10-09T02:25:35.857Z,100.00
2022-10-09T02:28:03.394Z,100.00
2022-10-09T02:30:43.960Z,100.00
2022-10-09T02:33:10.391Z,100.00
2022-10-09T02:35:38.171Z,100.00
2022-10-09T02:38:04.585Z,100.00
2022-10-09T02:40:31.178Z,100.00
2022-10-09T02:42:57.514Z,100.00
2022-10-09T02:45:23.909Z,100.00
2022-10-09T02:47:50.251Z,100.00
2022-10-09T02:50:16.597Z,100.00
2022-10-09T02:52:42.937Z,100.00
2022-10-09T02:55:09.354Z,100.00
2022-10-09T02:57:38.785Z,100.00
2022-10-09T03:00:05.705Z,100.00
2022-10-09T03:02:32.090Z,100.00
2022-10-09T03:04:58.804Z,100.00
2022-10-09T03:07:25.193Z,100.00
2022-10-09T03:09:51.594Z,100.00
2022-10-09T03:12:21.305Z,100.00
2022-10-09T03:14:47.713Z,100.00
2022-10-09T03:17:14.053Z,100.00
2022-10-09T03:19:40.411Z,100.00
2022-10-09T03:22:06.802Z,100.00
2022-10-09T03:24:33.125Z,100.00
2022-10-09T03:26:59.464Z,100.00
2022-10-09T03:29:25.825Z,100.00
2022-10-09T03:31:53.351Z,100.00
2022-10-09T03:34:20.173Z,100.00
2022-10-09T03:36:46.682Z,100.00
2022-10-09T03:39:13.098Z,100.00
2022-10-09T03:41:39.479Z,100.00
2022-10-09T03:44:05.873Z,100.00
2022-10-09T03:46:32.306Z,100.00
2022-10-09T03:48:58.733Z,100.00
2022-10-09T03:51:25.279Z,100.00
2022-10-09T03:53:51.718Z,100.00
2022-10-09T03:56:18.094Z,100.00
2022-10-09T03:58:44.544Z,100.00
2022-10-09T04:01:10.945Z,100.00
2022-10-09T04:03:37.576Z,100.00
2022-10-09T04:06:04.037Z,100.00
2022-10-09T04:08:30.402Z,100.00
2022-10-09T04:10:58.541Z,100.00
2022-10-09T04:13:25.036Z,100.00
2022-10-09T04:15:52.711Z,100.00
2022-10-09T04:18:19.398Z,100.00
2022-10-09T04:20:53.383Z,100.00
2022-10-09T04:23:21.201Z,100.00
2022-10-09T04:25:47.608Z,100.00
2022-10-09T04:28:14.044Z,100.00
2022-10-09T04:30:40.443Z,100.00
2022-10-09T04:33:10.456Z,100.00
2022-10-09T04:35:49.082Z,100.00
2022-10-09T04:38:15.505Z,100.00
2022-10-09T04:40:41.915Z,100.00
2022-10-09T04:43:08.417Z,100.00
2022-10-09T04:45:39.435Z,100.00
2022-10-09T04:48:05.853Z,100.00
2022-10-09T04:50:32.223Z,100.00
2022-10-09T04:52:58.608Z,100.00
2022-10-09T04:55:25.474Z,100.00
2022-10-09T04:57:51.802Z,100.00
2022-10-09T05:00:18.231Z,100.00
2022-10-09T05:02:44.565Z,100.00
2022-10-09T05:05:10.902Z,100.00
2022-10-09T05:07:38.482Z,100.00
2022-10-09T05:10:06.453Z,100.00
2022-10-09T05:12:32.979Z,100.00
2022-10-09T05:14:59.329Z,100.00
2022-10-09T05:17:25.726Z,100.00
2022-10-09T05:19:52.099Z,100.00
2022-10-09T05:22:18.493Z,100.00
2022-10-09T05:24:44.835Z,100.00
2022-10-09T05:27:11.235Z,100.00
2022-10-09T05:29:37.581Z,100.00
2022-10-09T05:32:04.040Z,100.00
2022-10-09T05:34:30.537Z,100.00
2022-10-09T05:36:56.909Z,100.00
2022-10-09T05:39:23.348Z,100.00
2022-10-09T05:41:49.779Z,100.00
2022-10-09T05:44:16.199Z,100.00
2022-10-09T05:46:42.559Z,100.00
2022-10-09T05:49:10.357Z,100.00
2022-10-09T05:51:38.760Z,100.00
2022-10-09T05:54:06.864Z,100.00
2022-10-09T05:56:36.313Z,100.00
2022-10-09T05:59:08.320Z,100.00
2022-10-09T06:01:39.800Z,100.00
2022-10-09T06:04:10.848Z,100.00
2022-10-09T06:06:38.882Z,100.00
2022-10-09T06:09:05.978Z,100.00
2022-10-09T06:11:35.108Z,100.00
2022-10-09T06:14:04.047Z,100.00
2022-10-09T06:16:32.923Z,100.00
2022-10-09T06:18:59.896Z,100.00
2022-10-09T06:21:27.739Z,100.00
2022-10-09T06:23:56.185Z,100.00
2022-10-09T06:26:23.888Z,100.00
2022-10-09T06:28:51.102Z,100.00
2022-10-09T06:31:21.022Z,100.00
2022-10-09T06:33:49.118Z,100.00
2022-10-09T06:36:24.167Z,100.00
2022-10-09T06:38:51.100Z,100.00
2022-10-09T06:41:20.205Z,100.00
2022-10-09T06:43:52.283Z,100.00
2022-10-09T06:46:20.235Z,100.00
2022-10-09T06:48:46.942Z,100.00
2022-10-09T06:51:16.206Z,100.00
2022-10-09T06:53:48.762Z,100.00
2022-10-09T06:56:16.072Z,100.00
2022-10-09T06:58:43.261Z,100.00
2022-10-09T07:01:12.229Z,100.00
2022-10-09T07:03:41.047Z,100.00
2022-10-09T07:06:08.945Z,100.00
2022-10-09T07:08:36.171Z,100.00
2022-10-09T07:11:21.348Z,100.00
2022-10-09T07:13:49.880Z,100.00
2022-10-09T07:16:20.887Z,100.00
2022-10-09T07:18:47.673Z,100.00
2022-10-09T07:21:14.268Z,100.00
2022-10-09T07:23:40.775Z,100.00
2022-10-09T07:26:12.841Z,100.00
2022-10-09T07:28:40.324Z,100.00
2022-10-09T07:31:07.229Z,100.00
2022-10-09T07:33:33.977Z,100.00
2022-10-09T07:36:02.847Z,100.00
2022-10-09T07:38:29.587Z,100.00
2022-10-09T07:41:04.743Z,100.00
2022-10-09T07:43:31.377Z,100.00
2022-10-09T07:45:59.373Z,100.00
2022-10-09T07:48:26.501Z,100.00
2022-10-09T07:50:53.053Z,100.00
2022-10-09T07:53:19.439Z,100.00
2022-10-09T07:55:47.527Z,100.00
2022-10-09T07:58:15.570Z,100.00
2022-10-09T08:00:42.391Z,100.00
2022-10-09T08:03:09.374Z,100.00
2022-10-09T08:05:36.030Z,100.00
2022-10-09T08:08:02.534Z,100.00
2022-10-09T08:10:30.896Z,100.00
2022-10-09T08:12:57.293Z,100.00
2022-10-09T08:15:23.658Z,100.00
2022-10-09T08:17:52.579Z,100.00
2022-10-09T08:20:19.018Z,100.00
2022-10-09T08:22:45.425Z,100.00
2022-10-09T08:25:11.826Z,100.00
2022-10-09T08:27:38.183Z,100.00
2022-10-09T08:30:04.935Z,100.00
2022-10-09T08:32:31.339Z,100.00
2022-10-09T08:34:57.680Z,100.00
2022-10-09T08:37:24.074Z,100.00
2022-10-09T08:39:50.423Z,100.00
2022-10-09T08:42:27.835Z,100.00
2022-10-09T08:44:55.005Z,100.00
2022-10-09T08:47:45.677Z,100.00
2022-10-09T08:50:29.675Z,100.00
2022-10-09T08:53:21.017Z,100.00
2022-10-09T08:55:53.433Z,100.00
2022-10-09T08:58:21.443Z,100.00
2022-10-09T09:00:59.562Z,100.00
2022-10-09T09:03:42.828Z,100.00
2022-10-09T09:06:17.831Z,100.00
2022-10-09T09:09:21.864Z,100.00
2022-10-09T09:11:51.821Z,100.00
2022-10-09T09:14:32.975Z,100.00
2022-10-09T09:17:12.339Z,100.00
2022-10-09T09:19:57.425Z,99.82
2022-10-09T09:22:24.721Z,99.54
2022-10-09T09:24:57.062Z,100.00
2022-10-09T09:27:36.584Z,99.39
2022-10-09T09:30:12.129Z,98.77
2022-10-09T09:33:13.223Z,98.13
2022-10-09T09:35:57.188Z,98.03
2022-10-09T09:38:23.731Z,97.84
2022-10-09T09:40:50.784Z,97.14
2022-10-09T09:43:23.312Z,96.47
2022-10-09T09:45:53.982Z,95.92
2022-10-09T09:48:26.728Z,94.58
2022-10-09T09:51:10.295Z,95.87
2022-10-09T09:53:43.538Z,95.08
2022-10-09T09:56:10.883Z,95.10
2022-10-09T09:58:46.016Z,96.08
2022-10-09T10:01:21.391Z,95.23
2022-10-09T10:03:50.587Z,95.96
2022-10-09T10:06:21.887Z,94.76
2022-10-09T10:09:13.221Z,94.76
2022-10-09T10:11:46.411Z,93.34
2022-10-09T10:14:15.727Z,91.31
2022-10-09T10:16:43.317Z,91.29
2022-10-09T10:19:25.617Z,90.80
2022-10-09T10:22:00.497Z,90.99
2022-10-09T10:24:38.644Z,90.27
2022-10-09T10:27:25.603Z,89.38
2022-10-09T10:29:57.951Z,89.10
2022-10-09T10:32:32.973Z,87.51
2022-10-09T10:35:11.173Z,87.97
2022-10-09T10:37:40.219Z,87.95
2022-10-09T10:40:27.422Z,88.50
2022-10-09T10:43:02.927Z,88.39
2022-10-09T10:45:49.679Z,87.46
2022-10-09T10:48:22.273Z,86.31
2022-10-09T10:51:01.770Z,86.23
2022-10-09T10:53:42.418Z,86.17
2022-10-09T10:56:28.485Z,87.17
2022-10-09T10:59:32.134Z,85.50
2022-10-09T11:02:22.897Z,84.67
2022-10-09T11:05:08.371Z,83.20
2022-10-09T11:08:02.764Z,83.55
2022-10-09T11:10:59.478Z,83.73
2022-10-09T11:13:47.707Z,82.85
2022-10-09T11:16:37.691Z,83.22
2022-10-09T11:19:22.750Z,81.42
2022-10-09T11:22:30.650Z,81.06
2022-10-09T11:25:21.823Z,80.57
2022-10-09T11:27:59.980Z,80.03
2022-10-09T11:30:29.876Z,80.66
2022-10-09T11:33:21.703Z,80.44
2022-10-09T11:35:55.725Z,79.66
2022-10-09T11:38:31.755Z,80.34
2022-10-09T11:41:00.699Z,79.17
2022-10-09T11:43:28.596Z,77.60
2022-10-09T11:46:28.286Z,77.12
2022-10-09T11:49:07.594Z,76.11
2022-10-09T11:51:34.025Z,76.44
2022-10-09T11:54:01.708Z,72.34
2022-10-09T11:56:31.923Z,71.45
2022-10-09T11:59:00.630Z,69.88
2022-10-09T12:01:53.119Z,68.45
2022-10-09T12:04:43.485Z,69.49
2022-10-09T12:07:30.983Z,72.25
2022-10-09T12:10:23.907Z,71.14
2022-10-09T12:13:06.264Z,72.07
2022-10-09T12:15:52.718Z,72.85
2022-10-09T12:18:24.732Z,73.99
2022-10-09T12:20:53.262Z,73.46
2022-10-09T12:23:27.499Z,72.61
2022-10-09T12:25:55.624Z,72.29
2022-10-09T12:28:49.925Z,73.01
2022-10-09T12:31:30.157Z,70.55
2022-10-09T12:34:29.309Z,70.55
2022-10-09T12:37:14.720Z,70.60
2022-10-09T12:39:41.509Z,70.50
2022-10-09T12:42:18.850Z,69.81
2022-10-09T12:44:46.854Z,68.25
2022-10-09T12:47:18.988Z,67.89
2022-10-09T12:49:55.257Z,67.52
2022-10-09T12:52:21.597Z,67.04
2022-10-09T12:54:47.954Z,66.27
2022-10-09T12:57:16.587Z,65.14
2022-10-09T12:59:45.242Z,64.05
2022-10-09T13:02:16.192Z,62.82
2022-10-09T13:04:59.780Z,63.60
2022-10-09T13:07:29.103Z,62.55
2022-10-09T13:10:01.748Z,62.73
2022-10-09T13:12:29.687Z,62.51
2022-10-09T13:14:59.092Z,62.05
2022-10-09T13:17:36.692Z,61.52
2022-10-09T13:20:25.043Z,61.93
2022-10-09T13:22:59.988Z,62.10
2022-10-09T13:25:29.395Z,61.54
2022-10-09T13:27:56.867Z,62.59
2022-10-09T13:30:23.248Z,61.29
2022-10-09T13:32:50.057Z,61.71
2022-10-09T13:35:17.193Z,61.51
2022-10-09T13:37:43.531Z,60.11
2022-10-09T13:40:14.514Z,59.68
2022-10-09T13:42:42.627Z,59.26
2022-10-09T13:45:10.160Z,59.86
2022-10-09T13:47:36.496Z,59.81
2022-10-09T13:50:03.786Z,60.28
2022-10-09T13:52:30.168Z,58.82
2022-10-09T13:54:56.539Z,58.36
2022-10-09T13:57:22.911Z,59.35
2022-10-09T13:59:49.245Z,59.81
2022-10-09T14:02:15.666Z,59.13
2022-10-09T14:04:42.154Z,59.54
2022-10-09T14:07:08.676Z,59.36
2022-10-09T14:09:35.050Z,59.37
2022-10-09T14:12:01.511Z,59.59
2022-10-09T14:14:27.944Z,59.04
2022-10-09T14:16:54.319Z,58.11
2022-10-09T14:19:20.715Z,58.14
2022-10-09T14:21:47.523Z,58.81
2022-10-09T14:24:14.851Z,58.36
2022-10-09T14:26:41.251Z,58.70
2022-10-09T14:29:07.739Z,58.67
2022-10-09T14:31:34.066Z,59.45
2022-10-09T14:34:00.541Z,57.58
2022-10-09T14:36:27.479Z,58.53
2022-10-09T14:38:53.926Z,57.61
2022-10-09T14:41:20.842Z,57.62
2022-10-09T14:43:48.743Z,58.15
2022-10-09T14:46:17.458Z,59.88
2022-10-09T14:48:45.575Z,60.22
2022-10-09T14:51:14.544Z,61.39
2022-10-09T14:53:41.129Z,62.08
2022-10-09T14:56:11.058Z,62.80
2022-10-09T14:58:38.240Z,61.73
2022-10-09T15:01:05.128Z,61.89
2022-10-09T15:03:32.073Z,61.77
2022-10-09T15:05:59.933Z,62.15
2022-10-09T15:08:26.672Z,62.92
2022-10-09T15:10:54.381Z,62.60
2022-10-09T15:13:20.875Z,62.45
2022-10-09T15:15:47.354Z,63.25
2022-10-09T15:18:13.696Z,63.14
2022-10-09T15:20:40.115Z,63.17
2022-10-09T15:23:06.490Z,63.79
2022-10-09T15:25:32.829Z,62.96
2022-10-09T15:28:03.960Z,63.68
2022-10-09T15:30:30.719Z,64.73
2022-10-09T15:33:00.483Z,65.17
2022-10-09T15:35:26.913Z,64.79
2022-10-09T15:37:55.671Z,65.01
2022-10-09T15:40:22.413Z,65.35
2022-10-09T15:42:48.876Z,66.50
2022-10-09T15:45:15.598Z,66.46
2022-10-09T15:47:50.889Z,67.26
2022-10-09T15:50:17.854Z,67.50
2022-10-09T15:52:44.218Z,67.05
2022-10-09T15:55:10.584Z,67.43
2022-10-09T15:57:36.971Z,68.11
2022-10-09T16:00:04.071Z,68.65
2022-10-09T16:02:30.415Z,69.40
2022-10-09T16:04:56.801Z,68.71
2022-10-09T16:07:23.249Z,69.50
2022-10-09T16:09:49.700Z,70.10
2022-10-09T16:12:16.043Z,70.09
2022-10-09T16:14:42.624Z,70.78
2022-10-09T16:17:11.321Z,71.21
2022-10-09T16:19:37.994Z,72.32
2022-10-09T16:22:05.764Z,72.96
2022-10-09T16:24:32.595Z,73.32
2022-10-09T16:26:59.424Z,73.78
2022-10-09T16:29:25.778Z,74.36
2022-10-09T16:31:55.515Z,75.43
2022-10-09T16:34:22.072Z,76.24
2022-10-09T16:36:48.436Z,76.51
2022-10-09T16:39:14.867Z,77.67
2022-10-09T16:41:42.186Z,78.63
2022-10-09T16:44:13.895Z,79.15
2022-10-09T16:46:40.281Z,79.84
2022-10-09T16:49:06.835Z,79.55
2022-10-09T16:51:35.543Z,80.71
2022-10-09T16:54:04.773Z,81.45
2022-10-09T16:56:33.584Z,81.04
2022-10-09T16:59:02.176Z,81.03
2022-10-09T17:01:29.402Z,81.45
2022-10-09T17:03:57.362Z,81.87
2022-10-09T17:06:24.534Z,81.57
2022-10-09T17:08:52.315Z,82.45
2022-10-09T17:11:19.859Z,82.01
2022-10-09T17:13:46.619Z,82.65
2022-10-09T17:16:18.389Z,83.08
2022-10-09T17:18:45.988Z,83.94
2022-10-09T17:21:13.407Z,84.21
2022-10-09T17:23:40.129Z,84.16
2022-10-09T17:26:08.025Z,84.10
2022-10-09T17:28:35.055Z,83.47
2022-10-09T17:31:03.972Z,83.90
2022-10-09T17:33:31.188Z,83.92
2022-10-09T17:35:58.245Z,83.78
2022-10-09T17:38:24.865Z,84.04
2022-10-09T17:40:51.335Z,85.01
2022-10-09T17:43:17.686Z,84.73
2022-10-09T17:45:46.717Z,85.29
2022-10-09T17:48:13.153Z,85.87
2022-10-09T17:50:39.539Z,85.26
2022-10-09T17:53:05.928Z,86.31
2022-10-09T17:55:32.262Z,86.89
2022-10-09T17:57:58.796Z,87.48
2022-10-09T18:00:25.163Z,87.49
2022-10-09T18:02:51.533Z,88.05
2022-10-09T18:05:17.990Z,87.48
2022-10-09T18:07:44.323Z,87.36
2022-10-09T18:10:10.761Z,87.29
2022-10-09T18:12:37.118Z,87.46
2022-10-09T18:15:03.884Z,87.62
2022-10-09T18:17:33.148Z,87.91
2022-10-09T18:19:59.523Z,88.44
2022-10-09T18:22:25.903Z,88.71
2022-10-09T18:24:53.382Z,89.40
2022-10-09T18:27:20.283Z,89.18
2022-10-09T18:29:46.662Z,90.14
2022-10-09T18:32:13.004Z,90.34
2022-10-09T18:34:39.741Z,91.14
2022-10-09T18:37:06.581Z,91.30
2022-10-09T18:39:33.214Z,91.96
2022-10-09T18:42:02.026Z,91.53
2022-10-09T18:44:30.195Z,91.95
2022-10-09T18:46:58.785Z,90.14
2022-10-09T18:49:29.648Z,90.74
2022-10-09T18:51:59.249Z,90.53
2022-10-09T18:54:27.237Z,91.21
2022-10-09T18:56:53.937Z,91.23
2022-10-09T18:59:22.177Z,92.23
2022-10-09T19:01:48.989Z,92.23
2022-10-09T19:04:15.402Z,93.89
2022-10-09T19:06:41.840Z,94.54
2022-10-09T19:09:08.262Z,95.30
2022-10-09T19:11:35.081Z,95.74
2022-10-09T19:14:01.997Z,95.63
2022-10-09T19:16:30.028Z,95.12
2022-10-09T19:18:56.719Z,96.24
2022-10-09T19:21:23.141Z,95.94
2022-10-09T19:23:51.467Z,95.79
2022-10-09T19:26:18.999Z,96.09
2022-10-09T19:28:45.761Z,96.40
2022-10-09T19:31:13.567Z,97.67
2022-10-09T19:33:41.130Z,97.57
2022-10-09T19:36:09.686Z,96.50
2022-10-09T19:38:36.596Z,98.55
2022-10-09T19:41:11.462Z,99.33
2022-10-09T19:43:37.976Z,98.44
2022-10-09T19:46:10.446Z,98.32
2022-10-09T19:48:37.475Z,98.48
2022-10-09T19:51:09.258Z,99.01
2022-10-09T19:53:36.299Z,99.14
2022-10-09T19:56:05.567Z,99.95
2022-10-09T19:58:31.904Z,97.92
2022-10-09T20:00:58.311Z,100.00
2022-10-09T20:03:24.671Z,100.00
2022-10-09T20:05:51.025Z,100.00
2022-10-09T20:08:17.384Z,100.00
2022-10-09T20:10:43.759Z,100.00
2022-10-09T20:13:10.107Z,100.00
2022-10-09T20:15:40.808Z,100.00
2022-10-09T20:18:07.205Z,100.00
2022-10-09T20:20:35.847Z,100.00
2022-10-09T20:23:02.200Z,100.00
2022-10-09T20:25:28.535Z,100.00
2022-10-09T20:27:54.904Z,100.00
2022-10-09T20:30:21.264Z,100.00
2022-10-09T20:32:49.041Z,100.00
2022-10-09T20:35:15.837Z,100.00
2022-10-09T20:37:42.216Z,100.00
2022-10-09T20:40:08.865Z,100.00
2022-10-09T20:42:35.275Z,100.00
2022-10-09T20:45:01.651Z,100.00
2022-10-09T20:47:28.112Z,100.00
2022-10-09T20:49:54.436Z,100.00
2022-10-09T20:52:20.892Z,100.00
2022-10-09T20:54:47.325Z,100.00
2022-10-09T20:57:13.867Z,100.00
2022-10-09T20:59:40.251Z,100.00
2022-10-09T21:02:06.595Z,100.00
2022-10-09T21:04:33.059Z,100.00
2022-10-09T21:06:59.550Z,100.00
2022-10-09T21:09:28.532Z,100.00
2022-10-09T21:11:58.752Z,100.00
2022-10-09T21:14:25.186Z,100.00
2022-10-09T21:16:51.562Z,100.00
2022-10-09T21:19:17.999Z,100.00
2022-10-09T21:21:48.679Z,100.00
2022-10-09T21:24:17.164Z,100.00
2022-10-09T21:26:46.819Z,100.00
2022-10-09T21:29:13.805Z,100.00
2022-10-09T21:31:40.179Z,100.00
2022-10-09T21:34:06.542Z,100.00
2022-10-09T21:36:56.205Z,100.00
2022-10-09T21:39:28.126Z,100.00
2022-10-09T21:41:54.701Z,100.00
2022-10-09T21:44:21.097Z,100.00
2022-10-09T21:46:47.523Z,100.00
2022-10-09T21:49:20.399Z,100.00
2022-10-09T21:51:47.474Z,100.00
2022-10-09T21:54:14.677Z,100.00
2022-10-09T21:56:41.165Z,100.00
2022-10-09T21:59:07.899Z,100.00
2022-10-09T22:01:34.317Z,100.00
2022-10-09T22:04:00.918Z,100.00
2022-10-09T22:06:27.377Z,100.00
2022-10-09T22:08:53.759Z,100.00
2022-10-09T22:11:20.279Z,100.00
2022-10-09T22:13:46.709Z,100.00
2022-10-09T22:16:15.415Z,100.00
2022-10-09T22:18:42.130Z,100.00
2022-10-09T22:21:12.429Z,100.00
2022-10-09T22:23:39.057Z,100.00
2022-10-09T22:26:08.495Z,100.00
2022-10-09T22:28:35.165Z,100.00
2022-10-09T22:31:03.978Z,100.00
2022-10-09T22:33:31.045Z,100.00
2022-10-09T22:36:13.397Z,100.00
2022-10-09T22:38:40.621Z,100.00
2022-10-09T22:41:16.561Z,100.00
2022-10-09T22:43:45.171Z,100.00
2022-10-09T22:46:14.991Z,100.00
2022-10-09T22:48:42.005Z,100.00
2022-10-09T22:51:12.328Z,100.00
2022-10-09T22:53:39.292Z,100.00
2022-10-09T22:56:07.516Z,100.00
2022-10-09T22:58:33.999Z,100.00
2022-10-09T23:01:06.356Z,100.00
2022-10-09T23:03:32.907Z,100.00
2022-10-09T23:06:10.733Z,100.00
2022-10-09T23:08:41.901Z,100.00
2022-10-09T23:11:08.748Z,100.00
2022-10-09T23:13:35.344Z,100.00
2022-10-09T23:16:03.931Z,100.00
2022-10-09T23:18:30.718Z,100.00
2022-10-09T23:20:57.323Z,100.00
2022-10-09T23:23:24.103Z,100.00
2022-10-09T23:25:50.469Z,100.00
2022-10-09T23:28:16.868Z,100.00
2022-10-09T23:30:43.245Z,100.00
2022-10-09T23:33:09.602Z,100.00
2022-10-09T23:35:40.523Z,100.00
2022-10-09T23:38:07.093Z,100.00
2022-10-09T23:40:33.492Z,100.00
2022-10-09T23:42:59.852Z,100.00
2022-10-09T23:45:26.861Z,100.00
2022-10-09T23:47:53.185Z,100.00
2022-10-09T23:50:19.522Z,100.00
2022-10-09T23:52:45.862Z,100.00
2022-10-09T23:55:12.299Z,100.00
2022-10-09T23:57:38.731Z,100.00
